Ana Sayfa
METAR-TAF:

METAR-TAF

Havaalanları :

Twin County Airport

Galax / Hillsville, Virginia, Amerika Birleşik Devletleri

Enlem: 36-46N, Boylam: 080-49W, yükseklik: 834 m

Güncel hava durumu gözlemi

Rapor saat 02:55 UTC de 22 dakika önce yapıldı.
Rüzgar güneybatıdan 5 kt
Sıcaklık 4°C
Nem 93%
Basınç 1011 hPa
Görüş mesafesi: 2.8 km
200 ft yükseklikte çok bulutlu
Pus

METAR: KHLX 260255Z AUTO 22005KT 1 3/4SM BR OVC002 04/03 A2985 RMK AO2 60007 T00370031

Saat: 22:17 (03:17 UTC)


TAF: eksik

4.000'den fazla havaalanı için hava durumu gözlemleri ve tahminleri (METAR ve TAF raporları).

Kullanılabilir istasyonlar harita üzerinde sarı ve kırmızı noktalarla gösterilir.

İstasyonun adını görmek için fareyi noktanın üzerinde gezdirin.

Sonrasında hava gözlem ve tahminlerini görmek için tıklayın.

Haritayı değiştirmek için: yaklaştırmak için siyah artı işaretli yeşil düğmeye ve uzaklaştırmak için de eksi işaretli düğmeye hızla tıklayın; bitişik haritalar için yeşil okları kullanın.


METAR-TAF: